sensor_id;sensor_type;location;lat;lon;timestamp;P1;durP1;ratioP1;P2;durP2;ratioP2
45893;SDS011;31603;51.148;16.932;2023-07-08T00:02:10;11.30;;;7.50;;
45893;SDS011;31603;51.148;16.932;2023-07-08T00:05:37;11.18;;;7.10;;
45893;SDS011;31603;51.148;16.932;2023-07-08T00:09:02;9.93;;;7.60;;
45893;SDS011;31603;51.148;16.932;2023-07-08T00:12:27;9.77;;;6.45;;
45893;SDS011;31603;51.148;16.932;2023-07-08T00:15:52;13.43;;;7.43;;
45893;SDS011;31603;51.148;16.932;2023-07-08T00:19:17;10.50;;;6.78;;
45893;SDS011;31603;51.148;16.932;2023-07-08T00:22:46;10.75;;;7.10;;
45893;SDS011;31603;51.148;16.932;2023-07-08T00:26:13;9.50;;;6.47;;
45893;SDS011;31603;51.148;16.932;2023-07-08T00:29:40;10.05;;;7.10;;
45893;SDS011;31603;51.148;16.932;2023-07-08T00:33:05;9.80;;;6.60;;
45893;SDS011;31603;51.148;16.932;2023-07-08T00:36:30;7.95;;;6.10;;
45893;SDS011;31603;51.148;16.932;2023-07-08T00:39:57;9.73;;;6.75;;
45893;SDS011;31603;51.148;16.932;2023-07-08T00:43:28;9.15;;;6.70;;
45893;SDS011;31603;51.148;16.932;2023-07-08T00:46:56;10.77;;;6.88;;
45893;SDS011;31603;51.148;16.932;2023-07-08T00:50:26;11.88;;;6.85;;
45893;SDS011;31603;51.148;16.932;2023-07-08T00:53:51;11.25;;;6.88;;
45893;SDS011;31603;51.148;16.932;2023-07-08T00:57:18;10.05;;;7.30;;
45893;SDS011;31603;51.148;16.932;2023-07-08T01:00:45;9.65;;;7.13;;
45893;SDS011;31603;51.148;16.932;2023-07-08T01:04:10;10.00;;;6.68;;
45893;SDS011;31603;51.148;16.932;2023-07-08T01:07:37;9.63;;;6.10;;
45893;SDS011;31603;51.148;16.932;2023-07-08T01:11:03;8.88;;;6.50;;
45893;SDS011;31603;51.148;16.932;2023-07-08T01:14:33;8.88;;;6.20;;
45893;SDS011;31603;51.148;16.932;2023-07-08T01:18:02;9.02;;;6.53;;
45893;SDS011;31603;51.148;16.932;2023-07-08T01:21:30;11.55;;;7.43;;
45893;SDS011;31603;51.148;16.932;2023-07-08T01:24:57;7.97;;;6.80;;
45893;SDS011;31603;51.148;16.932;2023-07-08T01:28:23;9.38;;;6.10;;
45893;SDS011;31603;51.148;16.932;2023-07-08T01:31:48;7.45;;;5.68;;
45893;SDS011;31603;51.148;16.932;2023-07-08T01:35:15;8.95;;;6.70;;
45893;SDS011;31603;51.148;16.932;2023-07-08T01:38:42;9.48;;;6.50;;
45893;SDS011;31603;51.148;16.932;2023-07-08T01:42:07;10.13;;;7.03;;
45893;SDS011;31603;51.148;16.932;2023-07-08T01:45:32;9.73;;;6.47;;
45893;SDS011;31603;51.148;16.932;2023-07-08T01:48:59;10.27;;;6.80;;
45893;SDS011;31603;51.148;16.932;2023-07-08T01:52:25;9.40;;;6.50;;
45893;SDS011;31603;51.148;16.932;2023-07-08T01:55:55;8.65;;;7.10;;
45893;SDS011;31603;51.148;16.932;2023-07-08T01:59:21;11.73;;;6.75;;
45893;SDS011;31603;51.148;16.932;2023-07-08T02:02:46;11.07;;;7.53;;
45893;SDS011;31603;51.148;16.932;2023-07-08T02:06:12;8.50;;;6.82;;
45893;SDS011;31603;51.148;16.932;2023-07-08T02:09:37;8.10;;;6.57;;
45893;SDS011;31603;51.148;16.932;2023-07-08T02:13:04;9.05;;;7.03;;
45893;SDS011;31603;51.148;16.932;2023-07-08T02:16:29;8.93;;;6.72;;
45893;SDS011;31603;51.148;16.932;2023-07-08T02:19:54;9.57;;;7.03;;
45893;SDS011;31603;51.148;16.932;2023-07-08T02:23:20;10.00;;;6.80;;
45893;SDS011;31603;51.148;16.932;2023-07-08T02:26:47;7.38;;;6.40;;
45893;SDS011;31603;51.148;16.932;2023-07-08T02:30:13;11.85;;;7.50;;
45893;SDS011;31603;51.148;16.932;2023-07-08T02:33:38;13.50;;;7.68;;
45893;SDS011;31603;51.148;16.932;2023-07-08T02:37:03;12.00;;;7.22;;
45893;SDS011;31603;51.148;16.932;2023-07-08T02:40:29;9.98;;;7.00;;
45893;SDS011;31603;51.148;16.932;2023-07-08T02:43:54;10.85;;;7.03;;
45893;SDS011;31603;51.148;16.932;2023-07-08T02:47:20;10.75;;;7.35;;
45893;SDS011;31603;51.148;16.932;2023-07-08T02:50:45;8.82;;;7.28;;
45893;SDS011;31603;51.148;16.932;2023-07-08T02:54:10;11.00;;;7.50;;
45893;SDS011;31603;51.148;16.932;2023-07-08T02:57:35;11.63;;;7.40;;
45893;SDS011;31603;51.148;16.932;2023-07-08T03:01:01;11.75;;;7.35;;
45893;SDS011;31603;51.148;16.932;2023-07-08T03:04:27;8.40;;;6.95;;
45893;SDS011;31603;51.148;16.932;2023-07-08T03:07:52;7.50;;;6.80;;
45893;SDS011;31603;51.148;16.932;2023-07-08T03:11:17;8.32;;;6.88;;
45893;SDS011;31603;51.148;16.932;2023-07-08T03:14:42;10.35;;;7.47;;
45893;SDS011;31603;51.148;16.932;2023-07-08T03:18:10;11.75;;;7.53;;
45893;SDS011;31603;51.148;16.932;2023-07-08T03:21:41;11.25;;;6.70;;
45893;SDS011;31603;51.148;16.932;2023-07-08T03:25:06;10.60;;;7.43;;
45893;SDS011;31603;51.148;16.932;2023-07-08T03:28:31;10.38;;;6.53;;
45893;SDS011;31603;51.148;16.932;2023-07-08T03:31:56;9.68;;;6.13;;
45893;SDS011;31603;51.148;16.932;2023-07-08T03:35:21;11.27;;;7.18;;
45893;SDS011;31603;51.148;16.932;2023-07-08T03:38:50;9.13;;;6.50;;
45893;SDS011;31603;51.148;16.932;2023-07-08T03:42:15;9.90;;;6.95;;
45893;SDS011;31603;51.148;16.932;2023-07-08T03:45:40;9.90;;;7.57;;
45893;SDS011;31603;51.148;16.932;2023-07-08T03:49:05;11.85;;;7.97;;
45893;SDS011;31603;51.148;16.932;2023-07-08T03:52:32;9.73;;;6.53;;
45893;SDS011;31603;51.148;16.932;2023-07-08T03:55:58;9.95;;;7.35;;
45893;SDS011;31603;51.148;16.932;2023-07-08T03:59:23;10.00;;;7.35;;
45893;SDS011;31603;51.148;16.932;2023-07-08T04:02:48;12.82;;;8.27;;
45893;SDS011;31603;51.148;16.932;2023-07-08T04:06:13;10.05;;;8.32;;
45893;SDS011;31603;51.148;16.932;2023-07-08T04:09:39;11.43;;;8.40;;
45893;SDS011;31603;51.148;16.932;2023-07-08T04:13:05;15.77;;;8.65;;
45893;SDS011;31603;51.148;16.932;2023-07-08T04:16:38;9.95;;;7.65;;
45893;SDS011;31603;51.148;16.932;2023-07-08T04:20:09;18.50;;;7.97;;
45893;SDS011;31603;51.148;16.932;2023-07-08T04:23:34;13.60;;;8.20;;
45893;SDS011;31603;51.148;16.932;2023-07-08T04:26:59;12.15;;;8.10;;
45893;SDS011;31603;51.148;16.932;2023-07-08T04:30:26;11.02;;;8.63;;
45893;SDS011;31603;51.148;16.932;2023-07-08T04:33:50;13.00;;;9.25;;
45893;SDS011;31603;51.148;16.932;2023-07-08T04:37:15;15.07;;;8.35;;
45893;SDS011;31603;51.148;16.932;2023-07-08T04:40:42;13.38;;;9.05;;
45893;SDS011;31603;51.148;16.932;2023-07-08T04:44:09;13.70;;;9.45;;
45893;SDS011;31603;51.148;16.932;2023-07-08T04:47:35;12.25;;;9.05;;
45893;SDS011;31603;51.148;16.932;2023-07-08T04:51:00;17.20;;;10.27;;
45893;SDS011;31603;51.148;16.932;2023-07-08T04:54:26;18.50;;;10.05;;
45893;SDS011;31603;51.148;16.932;2023-07-08T04:57:51;20.23;;;10.32;;
45893;SDS011;31603;51.148;16.932;2023-07-08T05:01:16;21.50;;;10.40;;
45893;SDS011;31603;51.148;16.932;2023-07-08T05:04:43;22.05;;;10.13;;
45893;SDS011;31603;51.148;16.932;2023-07-08T05:08:08;21.20;;;9.68;;
45893;SDS011;31603;51.148;16.932;2023-07-08T05:11:33;18.52;;;9.98;;
45893;SDS011;31603;51.148;16.932;2023-07-08T05:14:58;19.35;;;9.57;;
45893;SDS011;31603;51.148;16.932;2023-07-08T05:18:23;19.90;;;8.48;;
45893;SDS011;31603;51.148;16.932;2023-07-08T05:21:50;23.10;;;9.80;;
45893;SDS011;31603;51.148;16.932;2023-07-08T05:25:17;29.80;;;10.40;;
45893;SDS011;31603;51.148;16.932;2023-07-08T05:28:43;22.70;;;9.52;;
45893;SDS011;31603;51.148;16.932;2023-07-08T05:32:08;27.40;;;10.13;;
45893;SDS011;31603;51.148;16.932;2023-07-08T05:35:33;14.15;;;7.88;;
45893;SDS011;31603;51.148;16.932;2023-07-08T05:38:59;11.63;;;7.38;;
45893;SDS011;31603;51.148;16.932;2023-07-08T05:42:27;10.57;;;7.35;;
45893;SDS011;31603;51.148;16.932;2023-07-08T05:45:56;11.82;;;8.18;;
45893;SDS011;31603;51.148;16.932;2023-07-08T05:49:21;9.70;;;7.30;;
45893;SDS011;31603;51.148;16.932;2023-07-08T05:52:46;11.65;;;6.97;;
45893;SDS011;31603;51.148;16.932;2023-07-08T05:56:13;9.40;;;6.22;;
45893;SDS011;31603;51.148;16.932;2023-07-08T05:59:38;11.63;;;6.97;;
45893;SDS011;31603;51.148;16.932;2023-07-08T06:03:03;8.75;;;5.55;;
45893;SDS011;31603;51.148;16.932;2023-07-08T06:06:28;6.45;;;5.30;;
45893;SDS011;31603;51.148;16.932;2023-07-08T06:09:53;11.35;;;4.45;;
45893;SDS011;31603;51.148;16.932;2023-07-08T06:13:19;6.65;;;4.25;;
45893;SDS011;31603;51.148;16.932;2023-07-08T06:16:44;8.18;;;3.95;;
45893;SDS011;31603;51.148;16.932;2023-07-08T06:20:09;9.48;;;4.10;;
45893;SDS011;31603;51.148;16.932;2023-07-08T06:23:35;6.47;;;4.32;;
45893;SDS011;31603;51.148;16.932;2023-07-08T06:27:00;7.13;;;4.25;;
45893;SDS011;31603;51.148;16.932;2023-07-08T06:30:27;6.68;;;4.13;;
45893;SDS011;31603;51.148;16.932;2023-07-08T06:33:52;6.57;;;3.88;;
45893;SDS011;31603;51.148;16.932;2023-07-08T06:37:17;8.98;;;4.30;;
45893;SDS011;31603;51.148;16.932;2023-07-08T06:40:42;8.00;;;3.92;;
45893;SDS011;31603;51.148;16.932;2023-07-08T06:44:07;10.82;;;3.47;;
45893;SDS011;31603;51.148;16.932;2023-07-08T06:47:36;8.68;;;3.70;;
45893;SDS011;31603;51.148;16.932;2023-07-08T06:51:01;5.18;;;3.58;;
45893;SDS011;31603;51.148;16.932;2023-07-08T06:54:27;6.80;;;3.13;;
45893;SDS011;31603;51.148;16.932;2023-07-08T06:57:52;6.50;;;3.05;;
45893;SDS011;31603;51.148;16.932;2023-07-08T07:01:17;7.38;;;3.17;;
45893;SDS011;31603;51.148;16.932;2023-07-08T07:04:43;3.35;;;2.75;;
45893;SDS011;31603;51.148;16.932;2023-07-08T07:08:09;4.97;;;3.05;;
45893;SDS011;31603;51.148;16.932;2023-07-08T07:11:34;4.75;;;3.38;;
45893;SDS011;31603;51.148;16.932;2023-07-08T07:14:59;7.40;;;2.80;;
45893;SDS011;31603;51.148;16.932;2023-07-08T07:18:24;6.22;;;3.03;;
45893;SDS011;31603;51.148;16.932;2023-07-08T07:21:50;3.50;;;2.47;;
45893;SDS011;31603;51.148;16.932;2023-07-08T07:25:16;4.90;;;2.70;;
45893;SDS011;31603;51.148;16.932;2023-07-08T07:28:41;8.43;;;2.97;;
45893;SDS011;31603;51.148;16.932;2023-07-08T07:32:08;7.13;;;2.90;;
45893;SDS011;31603;51.148;16.932;2023-07-08T07:35:33;4.57;;;2.70;;
45893;SDS011;31603;51.148;16.932;2023-07-08T07:38:59;3.97;;;2.55;;
45893;SDS011;31603;51.148;16.932;2023-07-08T07:42:26;4.40;;;2.42;;
45893;SDS011;31603;51.148;16.932;2023-07-08T07:45:52;3.70;;;2.60;;
45893;SDS011;31603;51.148;16.932;2023-07-08T07:49:20;2.55;;;2.03;;
45893;SDS011;31603;51.148;16.932;2023-07-08T07:52:49;2.70;;;2.22;;
45893;SDS011;31603;51.148;16.932;2023-07-08T07:56:15;2.65;;;2.28;;
45893;SDS011;31603;51.148;16.932;2023-07-08T07:59:40;3.72;;;2.50;;
45893;SDS011;31603;51.148;16.932;2023-07-08T08:03:05;5.40;;;2.50;;
45893;SDS011;31603;51.148;16.932;2023-07-08T08:06:30;5.20;;;2.50;;
45893;SDS011;31603;51.148;16.932;2023-07-08T08:09:55;3.63;;;2.35;;
45893;SDS011;31603;51.148;16.932;2023-07-08T08:13:22;3.58;;;2.40;;
45893;SDS011;31603;51.148;16.932;2023-07-08T08:16:47;4.13;;;2.35;;
45893;SDS011;31603;51.148;16.932;2023-07-08T08:20:14;5.13;;;2.20;;
45893;SDS011;31603;51.148;16.932;2023-07-08T08:23:39;3.53;;;2.47;;
45893;SDS011;31603;51.148;16.932;2023-07-08T08:27:04;4.38;;;2.30;;
45893;SDS011;31603;51.148;16.932;2023-07-08T08:30:31;5.93;;;2.47;;
45893;SDS011;31603;51.148;16.932;2023-07-08T08:33:57;3.20;;;1.98;;
45893;SDS011;31603;51.148;16.932;2023-07-08T08:37:22;5.90;;;1.85;;
45893;SDS011;31603;51.148;16.932;2023-07-08T08:40:46;5.97;;;2.30;;
45893;SDS011;31603;51.148;16.932;2023-07-08T08:44:12;4.38;;;2.08;;
45893;SDS011;31603;51.148;16.932;2023-07-08T08:47:43;5.20;;;2.20;;
45893;SDS011;31603;51.148;16.932;2023-07-08T08:51:16;3.33;;;1.95;;
45893;SDS011;31603;51.148;16.932;2023-07-08T08:54:41;2.70;;;2.10;;
45893;SDS011;31603;51.148;16.932;2023-07-08T08:58:09;2.95;;;2.00;;
45893;SDS011;31603;51.148;16.932;2023-07-08T09:01:42;3.58;;;2.08;;
45893;SDS011;31603;51.148;16.932;2023-07-08T09:05:18;2.95;;;2.05;;
45893;SDS011;31603;51.148;16.932;2023-07-08T09:08:45;3.75;;;2.00;;
45893;SDS011;31603;51.148;16.932;2023-07-08T09:12:16;3.15;;;2.08;;
45893;SDS011;31603;51.148;16.932;2023-07-08T09:15:45;2.70;;;1.98;;
45893;SDS011;31603;51.148;16.932;2023-07-08T09:19:16;4.80;;;2.20;;
45893;SDS011;31603;51.148;16.932;2023-07-08T09:22:47;3.75;;;2.30;;
45893;SDS011;31603;51.148;16.932;2023-07-08T09:26:17;3.78;;;2.83;;
45893;SDS011;31603;51.148;16.932;2023-07-08T09:29:44;4.47;;;3.05;;
45893;SDS011;31603;51.148;16.932;2023-07-08T09:33:12;7.07;;;3.65;;
45893;SDS011;31603;51.148;16.932;2023-07-08T09:36:40;5.53;;;3.30;;
45893;SDS011;31603;51.148;16.932;2023-07-08T09:40:15;8.45;;;3.70;;
45893;SDS011;31603;51.148;16.932;2023-07-08T09:43:43;8.15;;;3.10;;
45893;SDS011;31603;51.148;16.932;2023-07-08T09:47:17;5.85;;;2.90;;
45893;SDS011;31603;51.148;16.932;2023-07-08T09:50:47;5.60;;;3.35;;
45893;SDS011;31603;51.148;16.932;2023-07-08T09:54:15;7.03;;;3.35;;
45893;SDS011;31603;51.148;16.932;2023-07-08T09:57:40;6.72;;;2.80;;
45893;SDS011;31603;51.148;16.932;2023-07-08T10:01:09;31.98;;;9.52;;
45893;SDS011;31603;51.148;16.932;2023-07-08T10:04:51;47.13;;;7.53;;
45893;SDS011;31603;51.148;16.932;2023-07-08T10:08:24;6.80;;;3.35;;
45893;SDS011;31603;51.148;16.932;2023-07-08T10:11:52;6.07;;;3.30;;
45893;SDS011;31603;51.148;16.932;2023-07-08T10:15:23;6.63;;;3.10;;
45893;SDS011;31603;51.148;16.932;2023-07-08T10:18:51;8.57;;;3.85;;
45893;SDS011;31603;51.148;16.932;2023-07-08T10:22:28;4.57;;;2.97;;
45893;SDS011;31603;51.148;16.932;2023-07-08T10:26:08;4.38;;;2.85;;
45893;SDS011;31603;51.148;16.932;2023-07-08T10:29:41;7.20;;;3.05;;
45893;SDS011;31603;51.148;16.932;2023-07-08T10:33:24;5.55;;;3.25;;
45893;SDS011;31603;51.148;16.932;2023-07-08T10:37:05;6.00;;;3.30;;
45893;SDS011;31603;51.148;16.932;2023-07-08T10:40:47;5.38;;;2.60;;
45893;SDS011;31603;51.148;16.932;2023-07-08T10:44:19;6.43;;;2.90;;
45893;SDS011;31603;51.148;16.932;2023-07-08T10:47:54;8.05;;;3.53;;
45893;SDS011;31603;51.148;16.932;2023-07-08T10:51:30;7.13;;;3.35;;
45893;SDS011;31603;51.148;16.932;2023-07-08T10:55:14;7.50;;;3.65;;
45893;SDS011;31603;51.148;16.932;2023-07-08T10:58:47;7.28;;;3.33;;
45893;SDS011;31603;51.148;16.932;2023-07-08T11:02:25;9.00;;;3.40;;
45893;SDS011;31603;51.148;16.932;2023-07-08T11:06:19;8.73;;;3.22;;
45893;SDS011;31603;51.148;16.932;2023-07-08T11:09:54;5.72;;;3.20;;
45893;SDS011;31603;51.148;16.932;2023-07-08T11:13:25;6.80;;;3.40;;
45893;SDS011;31603;51.148;16.932;2023-07-08T11:16:58;8.57;;;3.20;;
45893;SDS011;31603;51.148;16.932;2023-07-08T11:20:36;9.80;;;3.38;;
45893;SDS011;31603;51.148;16.932;2023-07-08T11:24:04;8.77;;;3.42;;
45893;SDS011;31603;51.148;16.932;2023-07-08T11:27:34;7.00;;;2.78;;
45893;SDS011;31603;51.148;16.932;2023-07-08T11:31:03;6.07;;;2.70;;
45893;SDS011;31603;51.148;16.932;2023-07-08T11:34:30;8.57;;;3.33;;
45893;SDS011;31603;51.148;16.932;2023-07-08T11:38:01;6.43;;;2.93;;
45893;SDS011;31603;51.148;16.932;2023-07-08T11:41:27;11.35;;;3.88;;
45893;SDS011;31603;51.148;16.932;2023-07-08T11:45:02;7.90;;;3.10;;
45893;SDS011;31603;51.148;16.932;2023-07-08T11:48:36;5.47;;;2.40;;
45893;SDS011;31603;51.148;16.932;2023-07-08T11:52:03;7.18;;;2.92;;
45893;SDS011;31603;51.148;16.932;2023-07-08T11:55:35;11.10;;;3.38;;
45893;SDS011;31603;51.148;16.932;2023-07-08T11:59:16;7.63;;;2.90;;
45893;SDS011;31603;51.148;16.932;2023-07-08T12:02:47;8.90;;;2.92;;
45893;SDS011;31603;51.148;16.932;2023-07-08T12:09:59;12.38;;;3.45;;
45893;SDS011;31603;51.148;16.932;2023-07-08T12:13:25;7.75;;;3.00;;
45893;SDS011;31603;51.148;16.932;2023-07-08T12:16:53;9.43;;;3.25;;
45893;SDS011;31603;51.148;16.932;2023-07-08T12:20:21;11.88;;;3.50;;
45893;SDS011;31603;51.148;16.932;2023-07-08T12:23:49;11.48;;;3.40;;
45893;SDS011;31603;51.148;16.932;2023-07-08T12:27:14;6.95;;;2.97;;
45893;SDS011;31603;51.148;16.932;2023-07-08T12:30:40;7.72;;;3.20;;
45893;SDS011;31603;51.148;16.932;2023-07-08T12:34:11;8.40;;;3.20;;
45893;SDS011;31603;51.148;16.932;2023-07-08T12:37:44;9.30;;;3.00;;
45893;SDS011;31603;51.148;16.932;2023-07-08T12:41:12;6.95;;;2.88;;
45893;SDS011;31603;51.148;16.932;2023-07-08T12:44:38;10.30;;;3.72;;
45893;SDS011;31603;51.148;16.932;2023-07-08T12:48:04;12.48;;;4.18;;
45893;SDS011;31603;51.148;16.932;2023-07-08T12:51:31;13.77;;;3.80;;
45893;SDS011;31603;51.148;16.932;2023-07-08T12:54:56;11.75;;;3.70;;
45893;SDS011;31603;51.148;16.932;2023-07-08T12:58:24;11.38;;;3.83;;
45893;SDS011;31603;51.148;16.932;2023-07-08T13:01:51;16.95;;;3.95;;
45893;SDS011;31603;51.148;16.932;2023-07-08T13:05:21;13.97;;;3.10;;
45893;SDS011;31603;51.148;16.932;2023-07-08T13:08:49;10.75;;;3.22;;
45893;SDS011;31603;51.148;16.932;2023-07-08T13:12:16;13.82;;;3.67;;
45893;SDS011;31603;51.148;16.932;2023-07-08T13:15:46;14.93;;;3.78;;
45893;SDS011;31603;51.148;16.932;2023-07-08T13:19:11;10.85;;;3.00;;
45893;SDS011;31603;51.148;16.932;2023-07-08T13:22:40;13.95;;;3.90;;
45893;SDS011;31603;51.148;16.932;2023-07-08T13:26:13;19.15;;;4.35;;
45893;SDS011;31603;51.148;16.932;2023-07-08T13:29:42;13.95;;;4.20;;
45893;SDS011;31603;51.148;16.932;2023-07-08T13:33:16;8.82;;;3.80;;
45893;SDS011;31603;51.148;16.932;2023-07-08T13:36:43;10.60;;;3.55;;
45893;SDS011;31603;51.148;16.932;2023-07-08T13:40:13;10.05;;;3.58;;
45893;SDS011;31603;51.148;16.932;2023-07-08T13:43:47;11.57;;;3.67;;
45893;SDS011;31603;51.148;16.932;2023-07-08T13:47:20;9.98;;;3.67;;
45893;SDS011;31603;51.148;16.932;2023-07-08T13:50:51;13.82;;;4.10;;
45893;SDS011;31603;51.148;16.932;2023-07-08T13:54:20;11.07;;;3.17;;
45893;SDS011;31603;51.148;16.932;2023-07-08T13:57:54;11.32;;;3.00;;
45893;SDS011;31603;51.148;16.932;2023-07-08T14:01:26;17.05;;;3.70;;
45893;SDS011;31603;51.148;16.932;2023-07-08T14:04:53;16.42;;;3.80;;
45893;SDS011;31603;51.148;16.932;2023-07-08T14:08:19;11.65;;;3.33;;
45893;SDS011;31603;51.148;16.932;2023-07-08T14:11:46;12.77;;;3.53;;
45893;SDS011;31603;51.148;16.932;2023-07-08T14:15:12;19.65;;;4.25;;
45893;SDS011;31603;51.148;16.932;2023-07-08T14:18:49;15.57;;;3.90;;
45893;SDS011;31603;51.148;16.932;2023-07-08T14:22:20;20.88;;;4.43;;
45893;SDS011;31603;51.148;16.932;2023-07-08T14:25:46;18.30;;;4.57;;
45893;SDS011;31603;51.148;16.932;2023-07-08T14:29:12;16.88;;;4.10;;
45893;SDS011;31603;51.148;16.932;2023-07-08T14:32:39;15.32;;;3.92;;
45893;SDS011;31603;51.148;16.932;2023-07-08T14:36:06;16.40;;;3.85;;
45893;SDS011;31603;51.148;16.932;2023-07-08T14:39:38;14.10;;;4.18;;
45893;SDS011;31603;51.148;16.932;2023-07-08T14:43:06;16.83;;;3.85;;
45893;SDS011;31603;51.148;16.932;2023-07-08T14:46:40;21.20;;;4.45;;
45893;SDS011;31603;51.148;16.932;2023-07-08T14:50:11;11.35;;;3.58;;
45893;SDS011;31603;51.148;16.932;2023-07-08T14:53:36;13.07;;;3.63;;
45893;SDS011;31603;51.148;16.932;2023-07-08T14:57:02;13.43;;;3.60;;
45893;SDS011;31603;51.148;16.932;2023-07-08T15:00:29;18.63;;;4.13;;
45893;SDS011;31603;51.148;16.932;2023-07-08T15:03:56;12.15;;;3.53;;
45893;SDS011;31603;51.148;16.932;2023-07-08T15:07:21;14.88;;;3.75;;
45893;SDS011;31603;51.148;16.932;2023-07-08T15:10:47;13.48;;;3.97;;
45893;SDS011;31603;51.148;16.932;2023-07-08T15:14:14;18.77;;;4.22;;
45893;SDS011;31603;51.148;16.932;2023-07-08T15:17:42;15.85;;;3.63;;
45893;SDS011;31603;51.148;16.932;2023-07-08T15:21:09;25.13;;;4.78;;
45893;SDS011;31603;51.148;16.932;2023-07-08T15:24:35;25.10;;;4.30;;
45893;SDS011;31603;51.148;16.932;2023-07-08T15:28:03;36.80;;;4.80;;
45893;SDS011;31603;51.148;16.932;2023-07-08T15:31:28;37.13;;;4.57;;
45893;SDS011;31603;51.148;16.932;2023-07-08T15:34:57;36.70;;;5.25;;
45893;SDS011;31603;51.148;16.932;2023-07-08T15:38:24;37.13;;;4.90;;
45893;SDS011;31603;51.148;16.932;2023-07-08T15:41:49;31.15;;;4.00;;
45893;SDS011;31603;51.148;16.932;2023-07-08T15:45:16;36.20;;;4.43;;
45893;SDS011;31603;51.148;16.932;2023-07-08T15:48:43;35.95;;;4.57;;
45893;SDS011;31603;51.148;16.932;2023-07-08T15:52:07;33.95;;;4.47;;
45893;SDS011;31603;51.148;16.932;2023-07-08T15:55:35;48.72;;;6.20;;
45893;SDS011;31603;51.148;16.932;2023-07-08T15:59:00;62.40;;;8.10;;
45893;SDS011;31603;51.148;16.932;2023-07-08T16:02:27;6.05;;;3.17;;
45893;SDS011;31603;51.148;16.932;2023-07-08T16:05:56;5.28;;;3.30;;
45893;SDS011;31603;51.148;16.932;2023-07-08T16:09:21;3.97;;;2.92;;
45893;SDS011;31603;51.148;16.932;2023-07-08T16:12:48;26.90;;;4.40;;
45893;SDS011;31603;51.148;16.932;2023-07-08T16:16:14;33.83;;;4.70;;
45893;SDS011;31603;51.148;16.932;2023-07-08T16:19:39;24.55;;;4.15;;
45893;SDS011;31603;51.148;16.932;2023-07-08T16:23:04;39.42;;;6.85;;
45893;SDS011;31603;51.148;16.932;2023-07-08T16:26:29;34.35;;;4.93;;
45893;SDS011;31603;51.148;16.932;2023-07-08T16:29:56;36.33;;;5.28;;
45893;SDS011;31603;51.148;16.932;2023-07-08T16:33:23;42.25;;;6.25;;
45893;SDS011;31603;51.148;16.932;2023-07-08T16:36:48;26.67;;;4.63;;
45893;SDS011;31603;51.148;16.932;2023-07-08T16:40:14;29.23;;;4.35;;
45893;SDS011;31603;51.148;16.932;2023-07-08T16:43:40;34.55;;;4.70;;
45893;SDS011;31603;51.148;16.932;2023-07-08T16:47:08;32.53;;;4.82;;
45893;SDS011;31603;51.148;16.932;2023-07-08T16:50:33;39.08;;;6.03;;
45893;SDS011;31603;51.148;16.932;2023-07-08T16:54:00;40.17;;;5.70;;
45893;SDS011;31603;51.148;16.932;2023-07-08T16:57:25;38.78;;;5.65;;
45893;SDS011;31603;51.148;16.932;2023-07-08T17:00:50;44.67;;;5.95;;
45893;SDS011;31603;51.148;16.932;2023-07-08T17:04:18;45.28;;;5.43;;
45893;SDS011;31603;51.148;16.932;2023-07-08T17:07:46;57.00;;;6.75;;
45893;SDS011;31603;51.148;16.932;2023-07-08T17:11:11;57.20;;;7.47;;
45893;SDS011;31603;51.148;16.932;2023-07-08T17:14:36;47.97;;;6.32;;
45893;SDS011;31603;51.148;16.932;2023-07-08T17:18:01;62.58;;;9.82;;
45893;SDS011;31603;51.148;16.932;2023-07-08T17:21:28;42.33;;;8.15;;
45893;SDS011;31603;51.148;16.932;2023-07-08T17:24:54;23.83;;;4.10;;
45893;SDS011;31603;51.148;16.932;2023-07-08T17:28:19;33.58;;;4.65;;
45893;SDS011;31603;51.148;16.932;2023-07-08T17:31:44;30.23;;;4.93;;
45893;SDS011;31603;51.148;16.932;2023-07-08T17:35:11;28.98;;;4.10;;
45893;SDS011;31603;51.148;16.932;2023-07-08T17:38:45;36.17;;;4.95;;
45893;SDS011;31603;51.148;16.932;2023-07-08T17:42:10;49.78;;;6.05;;
45893;SDS011;31603;51.148;16.932;2023-07-08T17:45:37;29.90;;;4.78;;
45893;SDS011;31603;51.148;16.932;2023-07-08T17:49:04;39.78;;;4.78;;
45893;SDS011;31603;51.148;16.932;2023-07-08T17:52:38;32.25;;;4.93;;
45893;SDS011;31603;51.148;16.932;2023-07-08T17:56:06;35.88;;;4.80;;
45893;SDS011;31603;51.148;16.932;2023-07-08T17:59:34;32.33;;;4.75;;
45893;SDS011;31603;51.148;16.932;2023-07-08T18:02:59;32.63;;;5.75;;
45893;SDS011;31603;51.148;16.932;2023-07-08T18:06:24;35.88;;;5.22;;
45893;SDS011;31603;51.148;16.932;2023-07-08T18:09:51;40.63;;;5.25;;
45893;SDS011;31603;51.148;16.932;2023-07-08T18:13:18;31.10;;;4.50;;
45893;SDS011;31603;51.148;16.932;2023-07-08T18:16:44;39.35;;;5.05;;
45893;SDS011;31603;51.148;16.932;2023-07-08T18:20:09;29.35;;;4.50;;
45893;SDS011;31603;51.148;16.932;2023-07-08T18:23:37;30.35;;;4.53;;
45893;SDS011;31603;51.148;16.932;2023-07-08T18:27:02;29.60;;;4.28;;
45893;SDS011;31603;51.148;16.932;2023-07-08T18:30:29;40.17;;;5.68;;
45893;SDS011;31603;51.148;16.932;2023-07-08T18:33:57;28.58;;;4.25;;
45893;SDS011;31603;51.148;16.932;2023-07-08T18:37:22;25.02;;;4.40;;
45893;SDS011;31603;51.148;16.932;2023-07-08T18:40:47;30.33;;;5.32;;
45893;SDS011;31603;51.148;16.932;2023-07-08T18:44:14;20.08;;;4.22;;
45893;SDS011;31603;51.148;16.932;2023-07-08T18:47:45;21.85;;;4.70;;
45893;SDS011;31603;51.148;16.932;2023-07-08T18:51:11;12.52;;;3.90;;
45893;SDS011;31603;51.148;16.932;2023-07-08T18:54:36;15.70;;;5.55;;
45893;SDS011;31603;51.148;16.932;2023-07-08T18:58:01;14.80;;;4.72;;
45893;SDS011;31603;51.148;16.932;2023-07-08T19:01:26;16.98;;;5.07;;
45893;SDS011;31603;51.148;16.932;2023-07-08T19:04:58;9.27;;;4.03;;
45893;SDS011;31603;51.148;16.932;2023-07-08T19:08:24;8.93;;;4.75;;
45893;SDS011;31603;51.148;16.932;2023-07-08T19:11:49;6.82;;;4.45;;
45893;SDS011;31603;51.148;16.932;2023-07-08T19:15:16;8.15;;;4.50;;
45893;SDS011;31603;51.148;16.932;2023-07-08T19:18:45;6.57;;;4.22;;
45893;SDS011;31603;51.148;16.932;2023-07-08T19:22:13;8.90;;;3.90;;
45893;SDS011;31603;51.148;16.932;2023-07-08T19:25:39;8.25;;;4.68;;
45893;SDS011;31603;51.148;16.932;2023-07-08T19:29:04;7.53;;;4.30;;
45893;SDS011;31603;51.148;16.932;2023-07-08T19:32:30;7.57;;;4.22;;
45893;SDS011;31603;51.148;16.932;2023-07-08T19:35:56;6.43;;;3.88;;
45893;SDS011;31603;51.148;16.932;2023-07-08T19:39:23;6.97;;;4.30;;
45893;SDS011;31603;51.148;16.932;2023-07-08T19:42:50;10.68;;;4.60;;
45893;SDS011;31603;51.148;16.932;2023-07-08T19:46:16;7.57;;;4.50;;
45893;SDS011;31603;51.148;16.932;2023-07-08T19:49:41;5.03;;;3.83;;
45893;SDS011;31603;51.148;16.932;2023-07-08T19:53:06;5.30;;;3.58;;
45893;SDS011;31603;51.148;16.932;2023-07-08T19:56:32;7.68;;;3.67;;
45893;SDS011;31603;51.148;16.932;2023-07-08T20:03:28;4.90;;;3.60;;
45893;SDS011;31603;51.148;16.932;2023-07-08T20:06:53;4.57;;;3.33;;
45893;SDS011;31603;51.148;16.932;2023-07-08T20:10:21;6.45;;;3.65;;
45893;SDS011;31603;51.148;16.932;2023-07-08T20:13:47;11.43;;;4.55;;
45893;SDS011;31603;51.148;16.932;2023-07-08T20:17:12;7.55;;;4.20;;
45893;SDS011;31603;51.148;16.932;2023-07-08T20:20:39;6.60;;;4.10;;
45893;SDS011;31603;51.148;16.932;2023-07-08T20:24:05;7.10;;;4.15;;
45893;SDS011;31603;51.148;16.932;2023-07-08T20:27:30;7.00;;;4.13;;
45893;SDS011;31603;51.148;16.932;2023-07-08T20:30:58;7.20;;;4.15;;